createdAt,value
2023-06-19T00:00:31.383Z,85.91
2023-06-19T00:02:58.251Z,84.98
2023-06-19T00:05:26.128Z,84.61
2023-06-19T00:07:52.928Z,84.30
2023-06-19T00:10:19.538Z,83.15
2023-06-19T00:15:12.694Z,82.30
2023-06-19T00:17:39.694Z,81.02
2023-06-19T00:20:06.863Z,80.03
2023-06-19T00:22:33.453Z,79.45
2023-06-19T00:25:00.386Z,78.82
2023-06-19T00:27:27.516Z,78.08
2023-06-19T00:29:54.252Z,77.26
2023-06-19T00:32:21.351Z,76.82
2023-06-19T00:34:48.012Z,75.79
2023-06-19T00:37:14.678Z,74.95
2023-06-19T00:39:43.748Z,76.08
2023-06-19T00:42:11.258Z,75.83
2023-06-19T00:44:37.786Z,74.96
2023-06-19T00:47:05.478Z,75.98
2023-06-19T00:49:32.576Z,74.66
2023-06-19T00:51:59.225Z,75.35
2023-06-19T00:54:26.302Z,73.25
2023-06-19T00:56:53.508Z,73.06
2023-06-19T00:59:20.851Z,72.39
2023-06-19T01:01:48.162Z,71.84
2023-06-19T01:04:15.330Z,71.57
2023-06-19T01:06:54.025Z,71.56
2023-06-19T01:09:21.489Z,70.18
2023-06-19T01:11:53.373Z,70.70
2023-06-19T01:14:27.173Z,70.25
2023-06-19T01:16:53.693Z,69.56
2023-06-19T01:19:21.874Z,69.38
2023-06-19T01:21:51.310Z,68.86
2023-06-19T01:24:17.908Z,68.62
2023-06-19T01:26:46.968Z,68.10
2023-06-19T01:29:16.749Z,68.17
2023-06-19T01:32:08.070Z,67.92
2023-06-19T01:34:35.350Z,67.29
2023-06-19T01:37:03.326Z,69.28
2023-06-19T01:39:29.988Z,67.80
2023-06-19T01:41:57.107Z,67.06
2023-06-19T01:44:23.719Z,66.29
2023-06-19T01:46:51.870Z,67.51
2023-06-19T01:49:19.330Z,67.10
2023-06-19T01:51:45.838Z,66.78
2023-06-19T01:54:12.295Z,64.90
2023-06-19T01:56:38.825Z,64.18
2023-06-19T01:59:05.372Z,63.69
2023-06-19T02:01:31.825Z,63.02
2023-06-19T02:03:58.338Z,62.75
2023-06-19T02:06:24.864Z,61.78
2023-06-19T02:08:51.373Z,61.37
2023-06-19T02:11:17.865Z,60.60
2023-06-19T02:13:44.409Z,60.86
2023-06-19T02:16:10.999Z,61.32
2023-06-19T02:18:37.503Z,61.17
2023-06-19T02:21:04.254Z,60.98
2023-06-19T02:23:30.790Z,61.07
2023-06-19T02:25:57.248Z,60.87
2023-06-19T02:28:23.720Z,60.57
2023-06-19T02:30:50.163Z,61.38
2023-06-19T02:33:16.651Z,61.29
2023-06-19T02:35:43.087Z,62.13
2023-06-19T02:38:09.583Z,62.80
2023-06-19T02:40:36.056Z,61.63
2023-06-19T02:43:02.569Z,61.69
2023-06-19T02:45:29.076Z,61.88
2023-06-19T02:47:55.748Z,62.06
2023-06-19T02:50:22.638Z,62.10
2023-06-19T02:52:49.412Z,62.53
2023-06-19T02:55:15.974Z,62.93
2023-06-19T02:57:42.459Z,63.37
2023-06-19T03:00:11.276Z,64.03
2023-06-19T03:02:37.973Z,64.53
2023-06-19T03:05:04.713Z,65.10
2023-06-19T03:07:31.209Z,65.84
2023-06-19T03:09:57.686Z,66.69
2023-06-19T03:12:24.152Z,67.29
2023-06-19T03:14:50.669Z,68.17
2023-06-19T03:17:17.163Z,68.55
2023-06-19T03:19:43.637Z,68.98
2023-06-19T03:22:10.137Z,69.41
2023-06-19T03:24:36.677Z,69.51
2023-06-19T03:27:03.420Z,69.77
2023-06-19T03:29:29.864Z,71.29
2023-06-19T03:31:56.363Z,70.51
2023-06-19T03:34:22.906Z,71.14
2023-06-19T03:36:49.344Z,72.14
2023-06-19T03:39:15.904Z,72.43
2023-06-19T03:41:42.356Z,73.56
2023-06-19T03:44:08.790Z,72.88
2023-06-19T03:46:35.400Z,72.98
2023-06-19T03:49:01.972Z,73.54
2023-06-19T03:51:30.196Z,74.39
2023-06-19T03:53:56.758Z,75.58
2023-06-19T03:56:23.261Z,74.74
2023-06-19T03:58:49.760Z,75.18
2023-06-19T04:01:16.275Z,77.23
2023-06-19T04:03:42.812Z,77.70
2023-06-19T04:06:09.357Z,76.32
2023-06-19T04:08:35.918Z,77.53
2023-06-19T04:11:02.402Z,78.17
2023-06-19T04:13:28.884Z,77.22
2023-06-19T04:15:55.432Z,77.52
2023-06-19T04:18:21.938Z,79.94
2023-06-19T04:20:48.470Z,79.04
2023-06-19T04:23:14.992Z,80.14
2023-06-19T04:25:41.570Z,81.24
2023-06-19T04:28:08.060Z,79.94
2023-06-19T04:30:34.589Z,82.08
2023-06-19T04:33:01.347Z,82.63
2023-06-19T04:35:27.913Z,83.70
2023-06-19T04:37:54.819Z,83.76
2023-06-19T04:40:21.718Z,84.32
2023-06-19T04:42:48.461Z,85.70
2023-06-19T04:45:14.984Z,85.71
2023-06-19T04:47:52.460Z,86.30
2023-06-19T04:50:20.685Z,86.85
2023-06-19T04:52:48.410Z,88.50
2023-06-19T04:55:14.890Z,88.77
2023-06-19T04:57:41.368Z,88.45
2023-06-19T05:00:11.105Z,89.93
2023-06-19T05:02:38.168Z,90.70
2023-06-19T05:05:05.055Z,89.34
2023-06-19T05:07:34.402Z,91.27
2023-06-19T05:10:00.916Z,93.05
2023-06-19T05:12:27.558Z,94.15
2023-06-19T05:14:54.083Z,95.67
2023-06-19T05:17:20.928Z,98.76
2023-06-19T05:19:47.625Z,100.00
2023-06-19T05:22:14.567Z,100.00
2023-06-19T05:24:41.142Z,100.00
2023-06-19T05:27:07.778Z,100.00
2023-06-19T05:29:34.291Z,100.00
2023-06-19T05:32:00.784Z,100.00
2023-06-19T05:34:27.258Z,100.00
2023-06-19T05:36:53.819Z,100.00
2023-06-19T05:39:20.376Z,97.66
2023-06-19T05:41:47.003Z,96.56
2023-06-19T05:44:17.856Z,94.24
2023-06-19T05:46:44.632Z,95.09
2023-06-19T05:49:11.591Z,93.31
2023-06-19T05:51:38.222Z,91.70
2023-06-19T05:54:05.279Z,95.42
2023-06-19T05:56:34.286Z,93.37
2023-06-19T05:59:02.586Z,95.46
2023-06-19T06:01:30.017Z,96.07
2023-06-19T06:03:57.688Z,100.00
2023-06-19T06:06:25.111Z,100.00
2023-06-19T06:08:52.532Z,100.00
2023-06-19T06:11:19.706Z,100.00
2023-06-19T06:13:46.184Z,100.00
2023-06-19T06:16:12.766Z,100.00
2023-06-19T06:18:39.265Z,100.00
2023-06-19T06:21:05.829Z,100.00
2023-06-19T06:23:32.797Z,100.00
2023-06-19T06:26:03.513Z,100.00
2023-06-19T06:28:30.476Z,100.00
2023-06-19T06:30:56.993Z,100.00
2023-06-19T06:33:24.395Z,100.00
2023-06-19T06:35:52.582Z,100.00
2023-06-19T06:38:19.186Z,100.00
2023-06-19T06:40:45.734Z,100.00
2023-06-19T06:43:12.263Z,100.00
2023-06-19T06:45:39.354Z,100.00
2023-06-19T06:48:08.057Z,100.00
2023-06-19T06:50:35.029Z,100.00
2023-06-19T06:53:01.648Z,100.00
2023-06-19T06:55:28.158Z,100.00
2023-06-19T06:57:54.617Z,100.00
2023-06-19T07:00:21.551Z,100.00
2023-06-19T07:02:49.446Z,100.00
2023-06-19T07:05:16.019Z,100.00
2023-06-19T07:07:42.521Z,100.00
2023-06-19T07:10:10.566Z,100.00
2023-06-19T07:12:45.508Z,100.00
2023-06-19T07:15:13.025Z,100.00
2023-06-19T07:17:39.664Z,100.00
2023-06-19T07:20:07.475Z,100.00
2023-06-19T07:22:34.189Z,100.00
2023-06-19T07:25:00.756Z,100.00
2023-06-19T07:27:28.700Z,100.00
2023-06-19T07:29:55.377Z,100.00
2023-06-19T07:32:21.906Z,100.00
2023-06-19T07:34:48.435Z,100.00
2023-06-19T07:37:18.714Z,100.00
2023-06-19T07:39:46.463Z,100.00
2023-06-19T07:42:14.903Z,100.00
2023-06-19T07:44:41.921Z,100.00
2023-06-19T07:47:09.400Z,100.00
2023-06-19T07:49:36.978Z,100.00
2023-06-19T07:52:07.302Z,100.00
2023-06-19T07:54:35.629Z,100.00
2023-06-19T07:57:02.590Z,100.00
2023-06-19T07:59:29.084Z,100.00
2023-06-19T08:01:55.762Z,100.00
2023-06-19T08:04:22.286Z,100.00
2023-06-19T08:06:48.761Z,100.00
2023-06-19T08:09:15.253Z,100.00
2023-06-19T08:11:41.688Z,100.00
2023-06-19T08:14:08.154Z,100.00
2023-06-19T08:16:34.876Z,100.00
2023-06-19T08:19:01.362Z,100.00
2023-06-19T08:21:27.864Z,100.00
2023-06-19T08:23:54.361Z,100.00
2023-06-19T08:26:21.375Z,100.00
2023-06-19T08:28:48.884Z,100.00
2023-06-19T08:31:15.442Z,100.00
2023-06-19T08:33:41.978Z,100.00
2023-06-19T08:36:08.534Z,100.00
2023-06-19T08:38:35.085Z,100.00
2023-06-19T08:41:01.705Z,100.00
2023-06-19T08:43:28.544Z,100.00
2023-06-19T08:46:27.434Z,100.00
2023-06-19T08:48:56.918Z,100.00
2023-06-19T08:51:23.632Z,100.00
2023-06-19T08:53:56.665Z,100.00
2023-06-19T08:56:23.396Z,100.00
2023-06-19T08:58:50.048Z,100.00
2023-06-19T09:01:20.694Z,100.00
2023-06-19T09:03:47.963Z,100.00
2023-06-19T09:06:17.630Z,100.00
2023-06-19T09:08:44.300Z,100.00
2023-06-19T09:11:12.528Z,100.00
2023-06-19T09:13:39.151Z,100.00
2023-06-19T09:16:09.549Z,100.00
2023-06-19T09:18:49.238Z,100.00
2023-06-19T09:21:20.300Z,100.00
2023-06-19T09:23:47.691Z,100.00
2023-06-19T09:26:18.845Z,100.00
2023-06-19T09:28:45.807Z,100.00
2023-06-19T09:31:13.565Z,100.00
2023-06-19T09:33:40.986Z,99.75
2023-06-19T09:36:07.952Z,98.34
2023-06-19T09:38:39.993Z,98.41
2023-06-19T09:41:07.272Z,98.41
2023-06-19T09:43:40.817Z,97.15
2023-06-19T09:46:08.403Z,97.84
2023-06-19T09:48:36.184Z,98.72
2023-06-19T09:51:05.684Z,97.12
2023-06-19T09:53:33.293Z,96.23
2023-06-19T09:55:59.745Z,94.12
2023-06-19T09:58:27.337Z,91.82
2023-06-19T10:00:56.193Z,89.80
2023-06-19T10:03:32.005Z,88.66
2023-06-19T10:06:00.984Z,87.03
2023-06-19T10:08:32.426Z,82.72
2023-06-19T10:10:59.269Z,83.69
2023-06-19T10:13:34.397Z,81.87
2023-06-19T10:16:02.038Z,81.83
2023-06-19T10:18:28.963Z,82.51
2023-06-19T10:20:56.498Z,81.09
2023-06-19T10:23:25.877Z,78.67
2023-06-19T10:25:55.514Z,77.25
2023-06-19T10:28:23.526Z,76.06
2023-06-19T10:31:19.543Z,76.49
2023-06-19T10:33:46.028Z,80.26
2023-06-19T10:36:15.502Z,78.77
2023-06-19T10:38:42.157Z,77.71
2023-06-19T10:41:18.900Z,74.28
2023-06-19T10:43:57.038Z,72.00
2023-06-19T10:46:24.639Z,71.23
2023-06-19T10:48:51.934Z,69.93
2023-06-19T10:51:21.342Z,69.01
2023-06-19T10:53:47.852Z,71.04
2023-06-19T10:56:14.478Z,69.08
2023-06-19T10:58:40.916Z,68.00
2023-06-19T11:01:07.435Z,69.07
2023-06-19T11:03:35.885Z,68.42
2023-06-19T11:06:02.493Z,67.17
2023-06-19T11:08:29.375Z,67.66
2023-06-19T11:10:56.371Z,64.52
2023-06-19T11:13:22.884Z,62.33
2023-06-19T11:15:52.829Z,62.83
2023-06-19T11:18:19.994Z,63.17
2023-06-19T11:20:49.374Z,64.17
2023-06-19T11:23:15.892Z,63.49
2023-06-19T11:25:43.442Z,63.10
2023-06-19T11:28:14.821Z,60.78
2023-06-19T11:30:44.365Z,59.44
2023-06-19T11:33:23.854Z,59.71
2023-06-19T11:35:54.747Z,58.06
2023-06-19T11:38:23.021Z,56.98
2023-06-19T11:40:50.149Z,57.27
2023-06-19T11:43:30.835Z,60.24
2023-06-19T11:46:05.171Z,59.31
2023-06-19T11:48:32.015Z,58.73
2023-06-19T11:50:58.565Z,59.00
2023-06-19T11:53:25.798Z,58.22
2023-06-19T11:55:52.789Z,58.93
2023-06-19T11:58:21.809Z,59.48
2023-06-19T12:00:49.200Z,57.88
2023-06-19T12:03:16.451Z,56.07
2023-06-19T12:05:43.025Z,55.89
2023-06-19T12:08:09.545Z,55.76
2023-06-19T12:10:36.217Z,55.88
2023-06-19T12:13:02.712Z,55.46
2023-06-19T12:15:29.172Z,55.71
2023-06-19T12:17:58.964Z,54.58
2023-06-19T12:20:26.594Z,56.10
2023-06-19T12:22:53.500Z,55.54
2023-06-19T12:25:20.220Z,56.54
2023-06-19T12:27:46.828Z,56.95
2023-06-19T12:30:13.612Z,55.48
2023-06-19T12:32:40.189Z,54.27
2023-06-19T12:35:07.993Z,55.94
2023-06-19T12:37:34.617Z,55.50
2023-06-19T12:40:01.157Z,54.10
2023-06-19T12:42:27.984Z,54.50
2023-06-19T12:44:54.452Z,54.21
2023-06-19T12:47:21.901Z,53.49
2023-06-19T12:49:48.644Z,53.20
2023-06-19T12:52:15.206Z,52.23
2023-06-19T12:54:43.403Z,52.10
2023-06-19T12:57:10.278Z,51.81
2023-06-19T12:59:36.803Z,52.00
2023-06-19T13:02:03.641Z,53.16
2023-06-19T13:04:30.172Z,52.81
2023-06-19T13:06:56.829Z,52.43
2023-06-19T13:09:23.404Z,50.83
2023-06-19T13:11:50.737Z,50.88
2023-06-19T13:14:17.207Z,49.79
2023-06-19T13:16:46.226Z,48.72
2023-06-19T13:19:14.957Z,48.80
2023-06-19T13:21:42.287Z,48.51
2023-06-19T13:24:09.122Z,50.75
2023-06-19T13:26:36.068Z,49.22
2023-06-19T13:29:02.710Z,49.39
2023-06-19T13:31:29.547Z,49.75
2023-06-19T13:33:56.364Z,51.07
2023-06-19T13:36:24.879Z,51.34
2023-06-19T13:38:52.897Z,52.41
2023-06-19T13:41:19.740Z,51.63
2023-06-19T13:43:48.917Z,50.71
2023-06-19T13:46:15.415Z,50.54
2023-06-19T13:48:41.880Z,48.96
2023-06-19T13:51:08.866Z,49.62
2023-06-19T13:53:35.373Z,47.69
2023-06-19T13:56:01.876Z,48.49
2023-06-19T13:58:28.374Z,48.70
2023-06-19T14:00:54.959Z,46.39
2023-06-19T14:03:21.590Z,46.60
2023-06-19T14:05:48.336Z,46.85
2023-06-19T14:08:14.971Z,46.20
2023-06-19T14:10:41.458Z,46.64
2023-06-19T14:13:13.022Z,47.62
2023-06-19T14:15:41.083Z,47.45
2023-06-19T14:18:07.688Z,46.10
2023-06-19T14:20:34.216Z,46.24
2023-06-19T14:23:01.780Z,44.91
2023-06-19T14:25:28.326Z,45.27
2023-06-19T14:27:54.786Z,44.78
2023-06-19T14:30:21.300Z,44.96
2023-06-19T14:32:49.219Z,46.22
2023-06-19T14:35:16.479Z,47.42
2023-06-19T14:37:42.993Z,47.58
2023-06-19T14:40:09.941Z,47.00
2023-06-19T14:42:36.398Z,47.53
2023-06-19T14:45:02.965Z,46.15
2023-06-19T14:47:29.725Z,45.23
2023-06-19T14:49:56.356Z,44.75
2023-06-19T14:52:22.916Z,45.40
2023-06-19T14:54:49.400Z,44.39
2023-06-19T14:57:15.912Z,45.35
2023-06-19T14:59:42.394Z,46.16
2023-06-19T15:02:08.964Z,46.23
2023-06-19T15:04:35.541Z,43.79
2023-06-19T15:07:02.845Z,43.97
2023-06-19T15:09:29.315Z,43.62
2023-06-19T15:11:55.801Z,44.48
2023-06-19T15:14:22.549Z,45.14
2023-06-19T15:16:49.068Z,44.00
2023-06-19T15:19:15.803Z,44.03
2023-06-19T15:21:42.619Z,44.45
2023-06-19T15:24:09.408Z,47.09
2023-06-19T15:26:38.379Z,44.69
2023-06-19T15:29:06.567Z,45.65
2023-06-19T15:31:33.019Z,44.92
2023-06-19T15:33:59.485Z,45.25
2023-06-19T15:36:26.070Z,45.78
2023-06-19T15:38:52.575Z,44.64
2023-06-19T15:41:19.145Z,44.15
2023-06-19T15:43:45.712Z,44.53
2023-06-19T15:46:15.412Z,44.87
2023-06-19T15:48:43.097Z,44.93
2023-06-19T15:51:09.646Z,41.91
2023-06-19T15:53:37.980Z,43.96
2023-06-19T15:56:04.780Z,43.65
2023-06-19T15:58:31.517Z,43.48
2023-06-19T16:00:58.055Z,43.06
2023-06-19T16:03:25.683Z,44.57
2023-06-19T16:08:25.293Z,41.55
2023-06-19T16:10:52.051Z,42.24
2023-06-19T16:13:18.523Z,40.91
2023-06-19T16:15:44.974Z,40.48
2023-06-19T16:18:11.454Z,40.64
2023-06-19T16:20:37.997Z,40.21
2023-06-19T16:23:04.467Z,42.15
2023-06-19T16:25:30.940Z,41.08
2023-06-19T16:27:59.242Z,41.20
2023-06-19T16:30:27.379Z,40.90
2023-06-19T16:32:53.989Z,40.63
2023-06-19T16:35:23.318Z,40.25
2023-06-19T16:37:54.496Z,39.51
2023-06-19T16:40:22.578Z,40.66
2023-06-19T16:42:49.807Z,40.70
2023-06-19T16:45:16.331Z,41.22
2023-06-19T16:47:42.863Z,39.95
2023-06-19T16:50:09.771Z,40.38
2023-06-19T16:52:36.387Z,40.82
2023-06-19T16:55:03.091Z,41.38
2023-06-19T16:57:30.941Z,41.86
2023-06-19T16:59:57.942Z,40.88
2023-06-19T17:02:24.618Z,42.23
2023-06-19T17:04:51.552Z,41.60
2023-06-19T17:07:18.318Z,43.63
2023-06-19T17:09:47.070Z,42.51
2023-06-19T17:12:14.818Z,43.43
2023-06-19T17:14:42.644Z,43.50
2023-06-19T17:17:09.399Z,41.44
2023-06-19T17:19:36.251Z,41.09
2023-06-19T17:22:02.724Z,42.41
2023-06-19T17:24:29.273Z,43.59
2023-06-19T17:26:58.419Z,44.07
2023-06-19T17:29:27.388Z,44.91
2023-06-19T17:31:57.930Z,45.37
2023-06-19T17:34:24.689Z,44.79
2023-06-19T17:36:51.434Z,45.12
2023-06-19T17:39:17.942Z,44.06
2023-06-19T17:41:44.456Z,45.12
2023-06-19T17:44:11.020Z,46.32
2023-06-19T17:46:39.590Z,46.78
2023-06-19T17:49:07.483Z,46.44
2023-06-19T17:51:34.504Z,47.66
2023-06-19T17:54:05.415Z,47.16
2023-06-19T17:56:32.651Z,46.97
2023-06-19T17:58:59.226Z,48.50
2023-06-19T18:01:25.911Z,48.61
2023-06-19T18:03:53.330Z,47.44
2023-06-19T18:06:20.485Z,47.80
2023-06-19T18:08:47.109Z,47.74
2023-06-19T18:11:13.819Z,49.26
2023-06-19T18:13:40.474Z,50.25
2023-06-19T18:16:12.551Z,51.05
2023-06-19T18:18:40.452Z,50.44
2023-06-19T18:21:07.193Z,49.94
2023-06-19T18:23:33.801Z,51.24
2023-06-19T18:26:00.308Z,53.09
2023-06-19T18:28:26.756Z,54.57
2023-06-19T18:30:53.223Z,54.72
2023-06-19T18:33:19.727Z,54.77
2023-06-19T18:35:46.249Z,55.93
2023-06-19T18:38:14.071Z,56.71
2023-06-19T18:40:42.376Z,58.82
2023-06-19T18:43:09.003Z,59.00
2023-06-19T18:45:35.605Z,58.06
2023-06-19T18:48:02.308Z,59.52
2023-06-19T18:50:28.798Z,60.32
2023-06-19T18:52:57.924Z,61.77
2023-06-19T18:55:24.397Z,62.82
2023-06-19T18:57:51.939Z,63.68
2023-06-19T19:00:19.277Z,63.88
2023-06-19T19:02:46.312Z,64.04
2023-06-19T19:05:13.122Z,65.57
2023-06-19T19:07:39.555Z,66.96
2023-06-19T19:10:07.145Z,68.19
2023-06-19T19:12:33.665Z,69.46
2023-06-19T19:15:00.179Z,71.36
2023-06-19T19:17:26.682Z,72.29
2023-06-19T19:19:53.193Z,75.05
2023-06-19T19:22:19.693Z,76.60
2023-06-19T19:24:46.234Z,78.83
2023-06-19T19:27:12.793Z,81.86
2023-06-19T19:29:39.284Z,82.97
2023-06-19T19:32:06.395Z,83.35
2023-06-19T19:34:32.890Z,85.57
2023-06-19T19:36:59.353Z,86.08
2023-06-19T19:39:26.038Z,85.03
2023-06-19T19:41:52.553Z,84.96
2023-06-19T19:44:19.024Z,84.29
2023-06-19T19:46:45.772Z,82.58
2023-06-19T19:49:12.345Z,82.12
2023-06-19T19:51:38.805Z,82.64
2023-06-19T19:54:05.403Z,84.74
2023-06-19T19:56:31.929Z,86.74
2023-06-19T19:58:58.391Z,87.72
2023-06-19T20:01:24.936Z,89.18
2023-06-19T20:03:51.699Z,88.57
2023-06-19T20:06:18.992Z,87.30
2023-06-19T20:08:45.579Z,87.58
2023-06-19T20:11:13.402Z,89.29
2023-06-19T20:13:40.369Z,89.88
2023-06-19T20:16:10.314Z,92.30
2023-06-19T20:18:37.412Z,90.78
2023-06-19T20:21:03.947Z,90.60
2023-06-19T20:23:30.476Z,91.56
2023-06-19T20:25:56.946Z,92.29
2023-06-19T20:28:23.382Z,94.61
2023-06-19T20:30:49.988Z,96.42
2023-06-19T20:33:16.461Z,98.36
2023-06-19T20:35:42.912Z,99.08
2023-06-19T20:38:09.433Z,99.31
2023-06-19T20:40:35.922Z,97.88
2023-06-19T20:43:02.403Z,99.54
2023-06-19T20:45:28.890Z,100.00
2023-06-19T20:47:55.537Z,100.00
2023-06-19T20:50:22.445Z,100.00
2023-06-19T20:52:49.094Z,100.00
2023-06-19T20:55:17.348Z,100.00
2023-06-19T20:57:43.893Z,100.00
2023-06-19T21:00:11.466Z,100.00
2023-06-19T21:02:39.086Z,100.00
2023-06-19T21:05:06.666Z,100.00
2023-06-19T21:07:33.191Z,100.00
2023-06-19T21:09:59.652Z,100.00
2023-06-19T21:12:26.211Z,100.00
2023-06-19T21:14:55.432Z,100.00
2023-06-19T21:17:22.555Z,100.00
2023-06-19T21:19:49.199Z,100.00
2023-06-19T21:22:15.737Z,100.00
2023-06-19T21:24:42.259Z,100.00
2023-06-19T21:27:08.812Z,100.00
2023-06-19T21:29:36.217Z,100.00
2023-06-19T21:32:02.698Z,100.00
2023-06-19T21:34:29.218Z,100.00
2023-06-19T21:36:55.723Z,100.00
2023-06-19T21:39:22.173Z,100.00
2023-06-19T21:41:48.662Z,100.00
2023-06-19T21:44:15.195Z,100.00
2023-06-19T21:46:41.713Z,100.00
2023-06-19T21:49:08.266Z,100.00
2023-06-19T21:51:35.896Z,100.00
2023-06-19T21:54:02.911Z,100.00
2023-06-19T21:56:29.407Z,100.00
2023-06-19T21:58:55.883Z,100.00
2023-06-19T22:01:22.505Z,100.00
2023-06-19T22:03:49.092Z,100.00
2023-06-19T22:06:16.928Z,100.00
2023-06-19T22:08:43.538Z,100.00
2023-06-19T22:11:10.288Z,100.00
2023-06-19T22:13:37.053Z,100.00
2023-06-19T22:16:03.690Z,100.00
2023-06-19T22:18:30.205Z,100.00
2023-06-19T22:20:56.729Z,100.00
2023-06-19T22:23:23.258Z,100.00
2023-06-19T22:25:50.180Z,100.00
2023-06-19T22:28:16.699Z,100.00
2023-06-19T22:30:43.536Z,100.00
2023-06-19T22:33:10.786Z,100.00
2023-06-19T22:35:37.400Z,100.00
2023-06-19T22:38:03.933Z,100.00
2023-06-19T22:40:30.624Z,100.00
2023-06-19T22:42:57.232Z,100.00
2023-06-19T22:45:24.041Z,100.00
2023-06-19T22:47:51.487Z,100.00
2023-06-19T22:50:18.084Z,100.00
2023-06-19T22:52:44.527Z,100.00
2023-06-19T22:55:11.222Z,100.00
2023-06-19T22:57:37.787Z,100.00
2023-06-19T23:00:11.250Z,100.00
2023-06-19T23:02:37.852Z,100.00
2023-06-19T23:05:05.441Z,100.00
2023-06-19T23:07:34.524Z,100.00
2023-06-19T23:10:01.282Z,100.00
2023-06-19T23:12:27.938Z,100.00
2023-06-19T23:14:54.420Z,100.00
2023-06-19T23:17:21.018Z,100.00
2023-06-19T23:19:47.531Z,100.00
2023-06-19T23:22:13.978Z,100.00
2023-06-19T23:24:41.485Z,100.00
2023-06-19T23:27:09.473Z,100.00
2023-06-19T23:29:37.143Z,100.00
2023-06-19T23:32:06.866Z,100.00
2023-06-19T23:34:34.088Z,100.00
2023-06-19T23:37:00.664Z,100.00
2023-06-19T23:39:27.145Z,100.00
2023-06-19T23:41:53.617Z,100.00
2023-06-19T23:44:20.234Z,100.00
2023-06-19T23:46:47.013Z,100.00
2023-06-19T23:49:13.619Z,100.00
2023-06-19T23:51:40.603Z,100.00
2023-06-19T23:54:07.092Z,100.00
2023-06-19T23:56:34.180Z,100.00
2023-06-19T23:59:01.031Z,100.00
